Terminal Aerodrome Forecast
Issued by NWS Jacksonville, FL

Home | Current Version | Previous Version | Text Only | Print | Product List | Glossary On
Versions: 1 2 3 4 5 6 7 8 9 10 11 12 13 14 15 16 17
000
FTUS42 KJAX 271316 AAA
TAFSSI
TAF AMD
KSSI 271316Z 2713/2812 28009KT P6SM SKC WS015/31035KT
     FM271430 28010G18KT P6SM SCT040
     FM271630 28014G22KT P6SM BKN040
     FM272300 30009KT P6SM SCT050=

USA.gov is the U.S. government's official web portal to all federal, state and local government web resources and services.